createdAt,value
2022-08-21T00:00:58.946Z,88.10
2022-08-21T00:03:22.621Z,88.30
2022-08-21T00:05:50.826Z,88.30
2022-08-21T00:08:14.886Z,88.50
2022-08-21T00:10:38.965Z,88.30
2022-08-21T00:13:04.059Z,88.10
2022-08-21T00:15:32.080Z,88.20
2022-08-21T00:17:58.199Z,88.50
2022-08-21T00:20:23.530Z,88.60
2022-08-21T00:22:47.639Z,88.40
2022-08-21T00:25:13.160Z,88.70
2022-08-21T00:27:37.302Z,88.60
2022-08-21T00:30:01.462Z,89.20
2022-08-21T00:32:27.399Z,89.30
2022-08-21T00:34:53.465Z,89.00
2022-08-21T00:37:17.388Z,89.50
2022-08-21T00:39:41.744Z,89.60
2022-08-21T00:42:05.999Z,90.10
2022-08-21T00:44:30.046Z,89.80
2022-08-21T00:46:53.813Z,89.80
2022-08-21T00:49:18.444Z,89.80
2022-08-21T00:51:49.613Z,89.60
2022-08-21T00:54:18.817Z,89.70
2022-08-21T00:56:43.284Z,89.60
2022-08-21T00:59:08.364Z,89.80
2022-08-21T01:01:32.772Z,89.60
2022-08-21T01:03:57.138Z,89.50
2022-08-21T01:06:20.978Z,89.90
2022-08-21T01:08:47.196Z,89.70
2022-08-21T01:11:44.170Z,89.70
2022-08-21T01:14:14.031Z,90.20
2022-08-21T01:16:38.122Z,90.00
2022-08-21T01:19:01.841Z,90.00
2022-08-21T01:21:29.166Z,89.60
2022-08-21T01:23:55.333Z,89.90
2022-08-21T01:26:31.131Z,90.10
2022-08-21T01:29:05.704Z,90.50
2022-08-21T01:31:32.542Z,90.30
2022-08-21T01:33:57.939Z,89.90
2022-08-21T01:36:22.051Z,90.30
2022-08-21T01:38:48.175Z,90.90
2022-08-21T01:41:12.458Z,90.40
2022-08-21T01:43:39.481Z,90.70
2022-08-21T01:46:05.264Z,90.70
2022-08-21T01:48:29.365Z,91.00
2022-08-21T01:50:56.863Z,90.90
2022-08-21T01:53:20.955Z,91.00
2022-08-21T01:55:58.486Z,90.50
2022-08-21T01:58:22.548Z,90.20
2022-08-21T02:00:46.319Z,90.90
2022-08-21T02:03:35.207Z,90.60
2022-08-21T02:06:00.483Z,90.40
2022-08-21T02:08:25.024Z,90.70
2022-08-21T02:10:48.898Z,90.70
2022-08-21T02:13:15.047Z,91.20
2022-08-21T02:15:38.905Z,90.90
2022-08-21T02:18:05.408Z,91.30
2022-08-21T02:20:32.571Z,91.30
2022-08-21T02:22:56.863Z,91.70
2022-08-21T02:25:25.959Z,91.60
2022-08-21T02:27:50.542Z,91.30
2022-08-21T02:30:19.528Z,91.50
2022-08-21T02:32:43.554Z,91.70
2022-08-21T02:35:08.788Z,91.20
2022-08-21T02:37:32.503Z,91.20
2022-08-21T02:39:56.455Z,91.10
2022-08-21T02:42:20.536Z,91.70
2022-08-21T02:44:44.391Z,92.00
2022-08-21T02:47:09.879Z,91.70
2022-08-21T02:49:33.636Z,91.70
2022-08-21T02:51:57.441Z,91.80
2022-08-21T02:54:21.071Z,91.70
2022-08-21T02:56:44.787Z,91.40
2022-08-21T02:59:08.539Z,91.50
2022-08-21T03:01:32.736Z,91.60
2022-08-21T03:03:57.977Z,91.70
2022-08-21T03:06:25.639Z,92.00
2022-08-21T03:08:49.648Z,92.20
2022-08-21T03:11:14.126Z,91.90
2022-08-21T03:13:40.012Z,92.30
2022-08-21T03:16:05.434Z,92.50
2022-08-21T03:18:33.852Z,92.40
2022-08-21T03:20:58.981Z,92.60
2022-08-21T03:23:22.814Z,92.40
2022-08-21T03:25:52.132Z,92.50
2022-08-21T03:28:23.102Z,92.20
2022-08-21T03:30:49.234Z,92.30
2022-08-21T03:33:15.421Z,92.40
2022-08-21T03:35:39.808Z,92.40
2022-08-21T03:38:04.896Z,92.10
2022-08-21T03:40:28.911Z,91.80
2022-08-21T03:42:53.248Z,92.00
2022-08-21T03:45:19.608Z,92.40
2022-08-21T03:47:54.750Z,93.00
2022-08-21T03:50:18.764Z,92.20
2022-08-21T03:52:42.452Z,92.20
2022-08-21T03:55:09.054Z,92.80
2022-08-21T03:57:32.691Z,92.70
2022-08-21T03:59:56.679Z,92.20
2022-08-21T04:02:23.391Z,93.50
2022-08-21T04:04:47.335Z,93.00
2022-08-21T04:07:11.211Z,93.10
2022-08-21T04:09:35.123Z,92.90
2022-08-21T04:12:01.789Z,94.10
2022-08-21T04:14:26.896Z,94.00
2022-08-21T04:16:50.981Z,94.00
2022-08-21T04:19:16.685Z,94.50
2022-08-21T04:21:41.529Z,92.80
2022-08-21T04:24:09.347Z,94.20
2022-08-21T04:26:33.197Z,94.20
2022-08-21T04:28:58.856Z,94.40
2022-08-21T04:31:22.819Z,94.40
2022-08-21T04:33:46.912Z,94.40
2022-08-21T04:36:11.619Z,94.80
2022-08-21T04:38:37.460Z,94.30
2022-08-21T04:41:01.915Z,94.00
2022-08-21T04:43:26.065Z,94.10
2022-08-21T04:45:52.466Z,94.20
2022-08-21T04:48:20.119Z,94.10
2022-08-21T04:50:50.074Z,94.10
2022-08-21T04:53:21.146Z,94.10
2022-08-21T04:55:46.704Z,94.40
2022-08-21T04:58:11.828Z,94.10
2022-08-21T05:00:35.711Z,94.80
2022-08-21T05:03:02.458Z,94.90
2022-08-21T05:05:27.032Z,94.70
2022-08-21T05:07:51.179Z,94.40
2022-08-21T05:10:16.594Z,94.90
2022-08-21T05:12:42.846Z,95.10
2022-08-21T05:15:07.729Z,94.70
2022-08-21T05:17:36.608Z,94.70
2022-08-21T05:20:02.762Z,94.90
2022-08-21T05:22:26.610Z,94.30
2022-08-21T05:24:50.346Z,94.40
2022-08-21T05:27:14.058Z,94.70
2022-08-21T05:29:41.442Z,94.50
2022-08-21T05:32:11.791Z,93.10
2022-08-21T05:34:35.453Z,93.00
2022-08-21T05:37:05.609Z,92.50
2022-08-21T05:40:21.190Z,92.30
2022-08-21T05:42:15.203Z,91.40
2022-08-21T05:44:38.911Z,90.50
2022-08-21T05:47:07.283Z,89.50
2022-08-21T05:49:30.878Z,89.60
2022-08-21T05:51:54.421Z,88.50
2022-08-21T05:54:19.383Z,89.00
2022-08-21T05:56:45.545Z,88.40
2022-08-21T05:59:09.110Z,88.10
2022-08-21T06:01:32.948Z,87.90
2022-08-21T06:03:56.779Z,87.50
2022-08-21T06:06:20.827Z,87.20
2022-08-21T06:08:44.800Z,87.30
2022-08-21T06:11:10.867Z,86.40
2022-08-21T06:13:35.040Z,86.00
2022-08-21T06:16:08.744Z,86.50
2022-08-21T06:18:32.580Z,85.50
2022-08-21T06:20:56.189Z,85.00
2022-08-21T06:23:21.429Z,85.40
2022-08-21T06:25:56.967Z,84.70
2022-08-21T06:28:22.053Z,83.80
2022-08-21T06:30:45.634Z,83.90
2022-08-21T06:33:09.792Z,83.50
2022-08-21T06:35:33.506Z,84.60
2022-08-21T06:37:57.321Z,84.10
2022-08-21T06:40:21.088Z,83.90
2022-08-21T06:42:45.453Z,81.50
2022-08-21T06:45:13.302Z,82.90
2022-08-21T06:47:37.213Z,81.70
2022-08-21T06:50:00.809Z,81.20
2022-08-21T06:52:24.366Z,81.20
2022-08-21T06:54:48.002Z,80.70
2022-08-21T06:57:11.639Z,80.70
2022-08-21T06:59:36.235Z,80.50
2022-08-21T07:02:01.781Z,80.40
2022-08-21T07:04:25.503Z,80.30
2022-08-21T07:06:49.140Z,78.80
2022-08-21T07:09:13.080Z,80.20
2022-08-21T07:11:42.405Z,79.20
2022-08-21T07:14:11.430Z,79.30
2022-08-21T07:16:44.101Z,79.50
2022-08-21T07:19:09.168Z,78.80
2022-08-21T07:21:32.721Z,78.20
2022-08-21T07:23:56.333Z,77.70
2022-08-21T07:26:24.102Z,78.90
2022-08-21T07:28:47.775Z,78.30
2022-08-21T07:31:15.377Z,77.50
2022-08-21T07:33:39.148Z,77.50
2022-08-21T07:36:05.322Z,78.10
2022-08-21T07:38:29.233Z,78.70
2022-08-21T07:40:55.330Z,78.60
2022-08-21T07:43:22.665Z,78.20
2022-08-21T07:45:46.898Z,78.30
2022-08-21T07:48:10.941Z,77.00
2022-08-21T07:50:34.518Z,75.70
2022-08-21T07:52:59.730Z,77.00
2022-08-21T07:55:26.076Z,76.90
2022-08-21T07:57:50.721Z,76.30
2022-08-21T08:00:20.583Z,76.40
2022-08-21T08:02:50.527Z,77.00
2022-08-21T08:05:14.349Z,75.70
2022-08-21T08:07:38.140Z,74.60
2022-08-21T08:10:03.405Z,76.30
2022-08-21T08:12:30.486Z,75.60
2022-08-21T08:14:54.045Z,75.40
2022-08-21T08:17:17.657Z,75.00
2022-08-21T08:19:41.579Z,74.50
2022-08-21T08:22:16.350Z,74.40
2022-08-21T08:24:41.544Z,74.90
2022-08-21T08:27:06.811Z,75.20
2022-08-21T08:29:31.913Z,75.10
2022-08-21T08:31:55.569Z,75.40
2022-08-21T08:34:25.039Z,74.40
2022-08-21T08:36:49.467Z,75.00
2022-08-21T08:39:26.763Z,72.50
2022-08-21T08:42:33.450Z,72.60
2022-08-21T08:44:51.757Z,73.20
2022-08-21T08:47:19.091Z,74.20
2022-08-21T08:49:55.706Z,72.00
2022-08-21T08:52:24.807Z,72.80
2022-08-21T08:54:55.018Z,73.60
2022-08-21T08:57:23.214Z,73.70
2022-08-21T08:59:53.552Z,73.00
2022-08-21T09:02:20.022Z,72.40
2022-08-21T09:04:44.529Z,72.80
2022-08-21T09:07:20.179Z,72.20
2022-08-21T09:09:57.774Z,72.30
2022-08-21T09:12:36.242Z,73.80
2022-08-21T09:15:12.200Z,74.60
2022-08-21T09:17:54.640Z,72.20
2022-08-21T09:20:28.709Z,73.40
2022-08-21T09:23:14.119Z,72.70
2022-08-21T09:25:51.297Z,71.30
2022-08-21T09:28:16.473Z,70.30
2022-08-21T09:30:43.125Z,69.10
2022-08-21T09:33:07.368Z,70.50
2022-08-21T09:35:30.997Z,69.30
2022-08-21T09:37:59.215Z,69.10
2022-08-21T09:40:33.625Z,69.80
2022-08-21T09:43:00.395Z,68.80
2022-08-21T09:45:25.591Z,69.50
2022-08-21T09:47:49.271Z,70.00
2022-08-21T09:50:17.712Z,69.10
2022-08-21T09:52:49.766Z,70.00
2022-08-21T09:55:48.219Z,69.90
2022-08-21T09:58:11.971Z,68.90
2022-08-21T10:00:38.615Z,68.60
2022-08-21T10:03:21.884Z,69.50
2022-08-21T10:05:59.950Z,68.20
2022-08-21T10:08:25.832Z,68.70
2022-08-21T10:10:56.640Z,67.60
2022-08-21T10:13:30.777Z,68.10
2022-08-21T10:16:09.070Z,65.40
2022-08-21T10:18:40.050Z,64.70
2022-08-21T10:21:12.122Z,67.20
2022-08-21T10:23:52.267Z,67.90
2022-08-21T10:26:33.343Z,66.50
2022-08-21T10:29:05.677Z,67.60
2022-08-21T10:31:41.641Z,67.80
2022-08-21T10:34:24.040Z,66.50
2022-08-21T10:36:58.321Z,66.90
2022-08-21T10:39:35.786Z,66.00
2022-08-21T10:42:28.554Z,64.60
2022-08-21T10:45:12.592Z,66.60
2022-08-21T10:47:44.249Z,65.90
2022-08-21T10:50:21.709Z,66.70
2022-08-21T10:53:02.231Z,64.30
2022-08-21T10:55:33.883Z,63.70
2022-08-21T10:58:01.717Z,63.50
2022-08-21T11:00:32.498Z,63.60
2022-08-21T11:03:05.623Z,64.50
2022-08-21T11:05:35.803Z,66.00
2022-08-21T11:08:07.525Z,63.70
2022-08-21T11:10:36.816Z,66.50
2022-08-21T11:13:11.222Z,64.40
2022-08-21T11:15:42.311Z,66.60
2022-08-21T11:18:19.935Z,65.20
2022-08-21T11:21:05.402Z,64.00
2022-08-21T11:23:39.341Z,64.00
2022-08-21T11:26:08.337Z,64.50
2022-08-21T11:28:37.165Z,62.80
2022-08-21T11:31:16.189Z,61.60
2022-08-21T11:33:59.964Z,64.90
2022-08-21T11:36:35.293Z,62.40
2022-08-21T11:39:10.106Z,64.30
2022-08-21T11:41:40.866Z,61.20
2022-08-21T11:44:16.361Z,63.00
2022-08-21T11:46:51.938Z,61.70
2022-08-21T11:49:36.330Z,62.60
2022-08-21T11:52:11.034Z,61.50
2022-08-21T11:54:42.340Z,63.70
2022-08-21T11:57:10.632Z,60.20
2022-08-21T11:59:41.947Z,62.10
2022-08-21T12:02:16.375Z,62.30
2022-08-21T12:04:50.375Z,63.60
2022-08-21T12:07:18.708Z,63.60
2022-08-21T12:09:42.368Z,63.60
2022-08-21T12:12:14.155Z,61.20
2022-08-21T12:14:47.944Z,62.70
2022-08-21T12:17:21.698Z,60.30
2022-08-21T12:19:46.978Z,59.30
2022-08-21T12:22:14.964Z,56.20
2022-08-21T12:24:42.756Z,58.70
2022-08-21T12:27:26.463Z,57.10
2022-08-21T12:29:53.518Z,62.20
2022-08-21T12:32:29.033Z,61.30
2022-08-21T12:35:00.377Z,58.90
2022-08-21T12:37:36.271Z,61.20
2022-08-21T12:40:03.997Z,60.70
2022-08-21T12:42:36.407Z,59.20
2022-08-21T12:45:13.625Z,58.30
2022-08-21T12:47:52.310Z,57.30
2022-08-21T12:50:34.879Z,59.60
2022-08-21T12:53:20.706Z,60.90
2022-08-21T12:55:47.945Z,57.10
2022-08-21T12:58:21.167Z,56.60
2022-08-21T13:00:52.367Z,55.00
2022-08-21T13:03:17.085Z,53.20
2022-08-21T13:05:44.339Z,55.60
2022-08-21T13:08:10.648Z,55.00
2022-08-21T13:10:36.477Z,55.00
2022-08-21T13:13:12.762Z,56.80
2022-08-21T13:15:47.754Z,55.60
2022-08-21T13:18:26.159Z,56.20
2022-08-21T13:21:06.415Z,58.00
2022-08-21T13:23:36.039Z,57.80
2022-08-21T13:26:04.629Z,57.60
2022-08-21T13:28:39.985Z,58.30
2022-08-21T13:31:13.753Z,57.70
2022-08-21T13:33:42.508Z,56.20
2022-08-21T13:36:18.969Z,56.70
2022-08-21T13:38:49.657Z,56.70
2022-08-21T13:41:23.760Z,54.90
2022-08-21T13:43:53.201Z,56.40
2022-08-21T13:46:17.394Z,52.80
2022-08-21T13:48:41.269Z,54.50
2022-08-21T13:51:06.175Z,54.10
2022-08-21T13:53:35.331Z,54.90
2022-08-21T13:56:00.959Z,53.00
2022-08-21T13:58:30.231Z,52.40
2022-08-21T14:00:55.832Z,53.00
2022-08-21T14:03:34.172Z,49.70
2022-08-21T14:06:00.229Z,50.70
2022-08-21T14:08:33.852Z,53.60
2022-08-21T14:10:58.167Z,53.30
2022-08-21T14:13:43.892Z,53.40
2022-08-21T14:16:18.618Z,53.00
2022-08-21T14:18:53.402Z,51.00
2022-08-21T14:21:37.976Z,50.40
2022-08-21T14:24:07.699Z,50.70
2022-08-21T14:26:32.014Z,49.70
2022-08-21T14:29:01.018Z,51.20
2022-08-21T14:31:31.290Z,52.70
2022-08-21T14:33:54.934Z,51.30
2022-08-21T14:36:18.500Z,53.20
2022-08-21T14:38:43.050Z,51.30
2022-08-21T14:41:18.603Z,49.10
2022-08-21T14:43:42.196Z,52.30
2022-08-21T14:46:05.905Z,51.00
2022-08-21T14:48:29.505Z,50.80
2022-08-21T14:51:00.509Z,51.50
2022-08-21T14:53:26.240Z,50.90
2022-08-21T14:56:09.272Z,52.00
2022-08-21T14:58:37.016Z,50.10
2022-08-21T15:01:05.044Z,51.30
2022-08-21T15:03:30.573Z,50.70
2022-08-21T15:05:54.623Z,51.90
2022-08-21T15:08:18.587Z,51.90
2022-08-21T15:10:57.315Z,51.10
2022-08-21T15:13:26.554Z,49.80
2022-08-21T15:15:57.664Z,49.30
2022-08-21T15:18:29.736Z,50.30
2022-08-21T15:20:59.801Z,52.70
2022-08-21T15:23:28.356Z,52.60
2022-08-21T15:25:54.631Z,51.70
2022-08-21T15:28:19.541Z,54.30
2022-08-21T15:30:44.690Z,52.30
2022-08-21T15:33:13.767Z,52.50
2022-08-21T15:35:41.187Z,53.60
2022-08-21T15:38:05.817Z,51.50
2022-08-21T15:40:37.588Z,50.90
2022-08-21T15:43:03.677Z,50.60
2022-08-21T15:45:27.890Z,49.70
2022-08-21T15:47:52.776Z,51.20
2022-08-21T15:50:18.285Z,51.10
2022-08-21T15:52:42.128Z,51.50
2022-08-21T15:55:06.939Z,51.20
2022-08-21T15:57:30.613Z,50.90
2022-08-21T15:59:58.702Z,52.40
2022-08-21T16:02:27.473Z,52.90
2022-08-21T16:04:51.155Z,52.00
2022-08-21T16:07:17.022Z,51.90
2022-08-21T16:09:40.815Z,52.10
2022-08-21T16:12:05.867Z,54.20
2022-08-21T16:14:36.000Z,54.80
2022-08-21T16:17:00.689Z,54.30
2022-08-21T16:19:24.937Z,53.40
2022-08-21T16:21:48.745Z,54.40
2022-08-21T16:24:13.768Z,52.70
2022-08-21T16:26:37.479Z,51.40
2022-08-21T16:29:03.224Z,52.70
2022-08-21T16:31:27.643Z,53.40
2022-08-21T16:33:57.771Z,51.90
2022-08-21T16:36:22.431Z,53.00
2022-08-21T16:38:48.340Z,52.10
2022-08-21T16:41:18.131Z,51.80
2022-08-21T16:43:43.947Z,50.90
2022-08-21T16:46:08.572Z,51.10
2022-08-21T16:48:32.290Z,52.80
2022-08-21T16:50:56.201Z,53.10
2022-08-21T16:53:21.654Z,52.30
2022-08-21T16:55:45.897Z,52.30
2022-08-21T16:58:18.124Z,51.60
2022-08-21T17:00:41.882Z,54.20
2022-08-21T17:03:05.945Z,53.40
2022-08-21T17:05:29.620Z,53.10
2022-08-21T17:07:53.239Z,53.20
2022-08-21T17:10:19.161Z,55.00
2022-08-21T17:12:44.752Z,52.90
2022-08-21T17:15:21.609Z,54.10
2022-08-21T17:17:45.523Z,51.00
2022-08-21T17:20:10.918Z,52.50
2022-08-21T17:22:34.581Z,54.10
2022-08-21T17:24:58.204Z,53.80
2022-08-21T17:27:26.637Z,53.80
2022-08-21T17:29:50.996Z,53.40
2022-08-21T17:32:17.136Z,53.40
2022-08-21T17:34:41.752Z,55.90
2022-08-21T17:37:05.805Z,53.40
2022-08-21T17:39:29.534Z,53.10
2022-08-21T17:41:57.858Z,54.40
2022-08-21T17:44:23.461Z,52.20
2022-08-21T17:46:47.153Z,53.50
2022-08-21T17:49:13.922Z,52.40
2022-08-21T17:51:37.672Z,53.60
2022-08-21T17:54:01.410Z,54.70
2022-08-21T17:56:31.218Z,52.50
2022-08-21T17:58:54.895Z,52.60
2022-08-21T18:01:19.947Z,52.90
2022-08-21T18:03:43.830Z,52.90
2022-08-21T18:06:09.325Z,54.90
2022-08-21T18:08:33.172Z,54.70
2022-08-21T18:10:58.952Z,55.30
2022-08-21T18:13:29.287Z,57.60
2022-08-21T18:15:54.868Z,58.60
2022-08-21T18:18:21.820Z,59.00
2022-08-21T18:20:46.055Z,59.50
2022-08-21T18:23:11.894Z,58.90
2022-08-21T18:25:35.769Z,59.90
2022-08-21T18:28:00.917Z,59.50
2022-08-21T18:30:25.947Z,59.20
2022-08-21T18:32:50.427Z,59.80
2022-08-21T18:35:16.758Z,60.60
2022-08-21T18:37:40.692Z,61.30
2022-08-21T18:40:08.584Z,62.30
2022-08-21T18:42:38.873Z,62.00
2022-08-21T18:45:05.336Z,61.50
2022-08-21T18:47:35.373Z,62.40
2022-08-21T18:49:59.047Z,63.30
2022-08-21T18:52:23.110Z,61.70
2022-08-21T18:54:52.254Z,62.50
2022-08-21T18:57:17.323Z,64.90
2022-08-21T18:59:43.616Z,66.70
2022-08-21T19:02:08.208Z,65.80
2022-08-21T19:04:43.791Z,66.70
2022-08-21T19:07:08.503Z,66.60
2022-08-21T19:09:32.344Z,66.10
2022-08-21T19:11:56.069Z,65.90
2022-08-21T19:14:22.680Z,66.50
2022-08-21T19:16:48.122Z,68.20
2022-08-21T19:19:12.073Z,68.00
2022-08-21T19:21:35.771Z,68.00
2022-08-21T19:24:00.170Z,67.30
2022-08-21T19:26:27.145Z,66.60
2022-08-21T19:28:55.498Z,67.30
2022-08-21T19:34:18.006Z,67.20
2022-08-21T19:36:42.604Z,67.50
2022-08-21T19:39:08.231Z,67.60
2022-08-21T19:41:36.877Z,68.20
2022-08-21T19:44:05.917Z,67.60
2022-08-21T19:46:35.834Z,68.00
2022-08-21T19:49:02.066Z,67.70
2022-08-21T19:51:26.590Z,65.80
2022-08-21T19:53:56.919Z,65.60
2022-08-21T19:56:25.984Z,66.40
2022-08-21T19:58:50.572Z,66.50
2022-08-21T20:01:16.646Z,65.10
2022-08-21T20:03:43.141Z,64.40
2022-08-21T20:06:07.565Z,63.70
2022-08-21T20:08:33.449Z,65.00
2022-08-21T20:11:00.786Z,65.40
2022-08-21T20:13:32.518Z,65.80
2022-08-21T20:15:56.605Z,63.30
2022-08-21T20:18:26.961Z,63.50
2022-08-21T20:20:52.454Z,65.90
2022-08-21T20:23:18.510Z,67.60
2022-08-21T20:25:53.871Z,67.70
2022-08-21T20:28:18.145Z,66.80
2022-08-21T20:30:46.662Z,67.60
2022-08-21T20:33:11.073Z,68.90
2022-08-21T20:35:35.609Z,67.50
2022-08-21T20:38:01.023Z,68.00
2022-08-21T20:40:28.056Z,68.00
2022-08-21T20:42:56.802Z,69.80
2022-08-21T20:45:25.873Z,70.20
2022-08-21T20:47:52.534Z,68.50
2022-08-21T20:50:26.868Z,69.80
2022-08-21T20:52:54.919Z,70.00
2022-08-21T20:55:28.960Z,69.50
2022-08-21T20:58:02.426Z,68.90
2022-08-21T21:00:28.517Z,70.40
2022-08-21T21:03:09.462Z,70.70
2022-08-21T21:05:38.335Z,70.60
2022-08-21T21:08:11.842Z,69.60
2022-08-21T21:10:44.844Z,70.60
2022-08-21T21:13:16.816Z,70.50
2022-08-21T21:15:44.661Z,70.70
2022-08-21T21:18:15.450Z,69.30
2022-08-21T21:20:50.124Z,69.00
2022-08-21T21:23:25.549Z,68.10
2022-08-21T21:26:01.457Z,70.40
2022-08-21T21:28:35.109Z,70.80
2022-08-21T21:30:58.821Z,71.20
2022-08-21T21:33:28.614Z,72.10
2022-08-21T21:36:01.148Z,71.40
2022-08-21T21:38:32.924Z,72.80
2022-08-21T21:41:12.330Z,72.30
2022-08-21T21:44:09.070Z,73.30
2022-08-21T21:46:48.619Z,69.80
2022-08-21T21:49:37.363Z,69.30
2022-08-21T21:52:15.742Z,70.50
2022-08-21T21:55:03.499Z,72.00
2022-08-21T21:57:49.371Z,72.30
2022-08-21T22:00:18.972Z,71.80
2022-08-21T22:02:56.152Z,71.60
2022-08-21T22:05:33.196Z,71.90
2022-08-21T22:08:07.793Z,72.30
2022-08-21T22:10:43.261Z,72.80
2022-08-21T22:16:06.005Z,72.10
2022-08-21T22:18:37.002Z,71.30
2022-08-21T22:21:14.842Z,70.40
2022-08-21T22:23:45.407Z,70.10
2022-08-21T22:26:16.654Z,70.40
2022-08-21T22:28:46.335Z,71.00
2022-08-21T22:31:20.985Z,70.10
2022-08-21T22:34:03.992Z,71.00
2022-08-21T22:36:32.855Z,70.70
2022-08-21T22:38:57.052Z,71.40
2022-08-21T22:41:28.006Z,72.10
2022-08-21T22:46:47.046Z,72.70
2022-08-21T22:49:15.653Z,72.00
2022-08-21T22:51:43.188Z,73.60
2022-08-21T22:54:16.654Z,73.80
2022-08-21T22:56:45.255Z,74.90
2022-08-21T22:59:34.784Z,74.50
2022-08-21T23:02:05.951Z,74.80
2022-08-21T23:04:30.948Z,74.70
2022-08-21T23:06:59.500Z,74.20
2022-08-21T23:09:33.752Z,75.00
2022-08-21T23:12:01.039Z,74.80
2022-08-21T23:14:26.498Z,75.30
2022-08-21T23:16:58.474Z,76.10
2022-08-21T23:19:38.418Z,76.50
2022-08-21T23:22:17.631Z,76.50
2022-08-21T23:25:01.575Z,76.80
2022-08-21T23:27:40.473Z,76.50
2022-08-21T23:30:11.255Z,76.00
2022-08-21T23:33:21.624Z,76.60
2022-08-21T23:36:11.116Z,75.80
2022-08-21T23:38:53.216Z,75.90
2022-08-21T23:41:34.131Z,75.80
2022-08-21T23:44:12.693Z,76.00
2022-08-21T23:46:53.683Z,76.60
2022-08-21T23:49:32.522Z,76.50
2022-08-21T23:52:07.891Z,76.60
2022-08-21T23:54:43.957Z,76.90
2022-08-21T23:57:31.797Z,76.60
